createdAt,value
2018-07-05T00:00:03.111Z,16.2
2018-07-05T00:15:02.420Z,15.8
2018-07-05T00:30:02.840Z,15.8
2018-07-05T00:45:03.185Z,15.5
2018-07-05T01:00:02.462Z,15.4
2018-07-05T01:15:02.770Z,15.4
2018-07-05T01:30:03.257Z,15.2
2018-07-05T01:45:02.596Z,15.1
2018-07-05T02:00:02.908Z,15.1
2018-07-05T02:15:03.233Z,14.8
2018-07-05T02:30:02.677Z,14.7
2018-07-05T02:45:02.969Z,14.5
2018-07-05T03:00:02.282Z,14.5
2018-07-05T03:15:02.599Z,14.3
2018-07-05T03:30:02.980Z,14.1
2018-07-05T03:45:02.318Z,14.3
2018-07-05T04:00:02.682Z,14.1
2018-07-05T04:15:02.992Z,14.3
2018-07-05T04:30:02.410Z,14.3
2018-07-05T04:45:02.766Z,14.7
2018-07-05T05:00:03.111Z,15.1
2018-07-05T05:15:02.566Z,15.2
2018-07-05T05:30:03.049Z,15.8
2018-07-05T05:45:02.389Z,16.2
2018-07-05T06:00:02.696Z,16.6
2018-07-05T06:15:03.002Z,17.2
2018-07-05T06:30:02.467Z,17.8
2018-07-05T06:45:02.798Z,18.2
2018-07-05T07:00:03.078Z,18.6
2018-07-05T07:15:02.424Z,19.1
2018-07-05T07:30:02.779Z,19.4
2018-07-05T07:45:03.106Z,20
2018-07-05T08:00:02.465Z,21.8
2018-07-05T08:15:02.867Z,22.6
2018-07-05T08:30:03.412Z,23.1
2018-07-05T08:45:02.737Z,24.3
2018-07-05T09:00:03.095Z,24.1
2018-07-05T09:15:02.457Z,24.1
2018-07-05T09:30:02.857Z,25.2
2018-07-05T09:45:03.182Z,25.9
2018-07-05T10:00:02.563Z,26.6
2018-07-05T10:15:02.863Z,26.8
2018-07-05T10:30:03.303Z,28.3
2018-07-05T10:45:02.648Z,28.4
2018-07-05T11:00:02.961Z,28.1
2018-07-05T11:15:02.280Z,29.4
2018-07-05T11:30:02.697Z,29.6
2018-07-05T11:45:03.026Z,30.4
2018-07-05T12:00:02.372Z,30.2
2018-07-05T12:15:02.699Z,29.4
2018-07-05T12:30:03.094Z,29.3
2018-07-05T12:45:02.467Z,28.9
2018-07-05T13:00:02.769Z,30.3
2018-07-05T13:15:03.160Z,29.8
2018-07-05T13:30:02.573Z,28.1
2018-07-05T13:45:02.876Z,27.7
2018-07-05T14:00:03.233Z,27.6
2018-07-05T14:15:02.580Z,27.6
2018-07-05T14:30:03.000Z,27.9
2018-07-05T14:45:02.375Z,29
2018-07-05T15:00:02.682Z,24.9
2018-07-05T15:15:02.984Z,24.1
2018-07-05T15:30:02.422Z,23.7
2018-07-05T15:45:02.731Z,23.1
2018-07-05T16:00:03.018Z,22.9
2018-07-05T16:15:02.372Z,22.3
2018-07-05T16:30:02.750Z,22.2
2018-07-05T16:45:03.118Z,21.6
2018-07-05T17:00:02.460Z,20.7
2018-07-05T17:15:02.789Z,19.9
2018-07-05T17:30:03.194Z,19.3
2018-07-05T17:45:02.556Z,19
2018-07-05T18:00:02.886Z,19
2018-07-05T18:15:03.226Z,19.1
2018-07-05T18:30:02.631Z,19
2018-07-05T18:45:02.969Z,19.1
2018-07-05T19:00:02.268Z,19.1
2018-07-05T19:15:02.584Z,18.9
2018-07-05T19:30:02.961Z,19
2018-07-05T19:45:02.320Z,18.9
2018-07-05T20:00:02.675Z,18.6
2018-07-05T20:15:02.997Z,18.7
2018-07-05T20:30:02.542Z,18.7
2018-07-05T20:45:02.871Z,18.4
2018-07-05T21:00:03.235Z,18.5
2018-07-05T21:15:02.550Z,18.2
2018-07-05T21:30:03.000Z,18
2018-07-05T21:45:02.345Z,17.9
2018-07-05T22:00:02.769Z,17.7
2018-07-05T22:15:03.087Z,17.4
2018-07-05T22:30:02.545Z,17.6
2018-07-05T22:45:02.872Z,17.6
2018-07-05T23:00:03.261Z,17.4
2018-07-05T23:15:02.676Z,17.3
2018-07-05T23:30:03.112Z,17.2
2018-07-05T23:45:02.475Z,17.1
